Aktualne dane pomiarowe

Uwaga, wersja testowa! Automatyczne pobieranie danych za pomocą narzędzi lub skryptów to umożliwiających jest zabronione.

Dane meteo z obszaru Polski uzyskane na podstawie depesz SYNOP pobieranych co godzinę z NWS. Najedź myszką na symbol przedstawiony w tabeli, aby uzyskać informacje co do jego znaczenia. Prosimy pamiętać, że to testowa wersja strony, która jeszcze nie jest ukończona. Stworzono również jest krótki FAQ dotyczący korzystania z tej podstrony Anomalie temperatury w chwili obecnej odniesione są do okresu referencyjnego 1951-2016. Okres ten będzie później zmieniony na 1981-2010. Kliknij ikonę aby pobrać plik CSV. Kliknij ikonę aby wygenerować mapę synoptyczną dla danego terminu.

Wybierz Datę:    

        

Tarnów (12575)

Dane terminowe dla wybranej stacji. Kliknij datę, aby otrzymać dane z tego terminu dla wszystkich stacji.

TemperaturaZachmurzenieWiatrCiśnienieOpadyPogoda
 Data t td wb tx tn tg rh  Nt Nl Cl Cm Ch ws wd g1 g2 wx mslp ppp ch 24h 12h t ww ww w1 w2  
2019-07-20 23:00:00 18.8 15.5 16.5--- 8119.0--1wx--11017.2 992.6 0.2---------
2019-07-20 22:00:00 20.0 15.6 17.0--- 7620.0--1wx--11017.2 992.7 0.5---------
2019-07-20 21:00:00 20.3 15.9 17.3--- 7617.0--1wx---1017.0 992.6 0.7---------
2019-07-20 20:00:00 22.2 16.2 18.2--- 6920.0--1wx--11016.7 992.4 0.6---------
2019-07-20 19:00:00 23.3 16.3 18.6--- 6520.0--1wx--11016.4 992.2 0.5---------
2019-07-20 18:00:00 24.7 16.4 19.2 29.3 20.0- 6022.0--2wx--21016.0 991.9 0.1--12------
2019-07-20 17:00:00 26.7 16.3 19.9--- 5324.0--3wx--31015.7 991.8 -0.2---------
2019-07-20 16:00:00 28.1 12.8 18.7--- 3920.0--1wx--11015.5 991.7 -0.6---------
2019-07-20 15:00:00 29.2 12.2 18.8--- 3525.0--1wx---1015.5 991.8 -0.9---------
2019-07-20 14:00:00 28.0 11.9 18.2--- 3727.0--2wx--21015.8 992.0 -1.1---------
2019-07-20 13:00:00 27.4 12.6 18.3--- 4025.0--1wx--11016.2 992.3 -0.8---------
2019-07-20 12:00:00 27.7 13.6 18.9--- 4222.0--2wx-821016.5 992.7 -0.7--6------
2019-07-20 11:00:00 26.8 13.5 18.5--- 4421.0--1wx--11017.0 993.1 -0.1---------
2019-07-20 10:00:00 26.2 13.7 18.4--- 4624.0--1wx--11017.1 993.1 -0.1---------
2019-07-20 09:00:00 24.5 13.1 17.4--- 4927.0--2wx--21017.5 993.4 0.3---------
2019-07-20 08:00:00 24.2 13.1 17.3--- 5024.0--2wx--21017.3 993.2 0.5---------
2019-07-20 07:00:00 21.1 15.4 17.3--- 7023.0--1wx--11017.6 993.2 0.6---wx-----
2019-07-20 06:00:00 20.0 14.4 16.3 21.8 15.8 15 7022.0--1wx--11017.6 993.1 0.7--12----- 9.8
2019-07-20 05:00:00 18.3 14.6 15.8--- 7916.0--0----1017.3 992.7 0.4---------
2019-07-20 04:00:00 16.7 14.5 15.2--- 8716.0--0---01017.4 992.6 0.5---------
2019-07-20 03:00:00 16.2 13.9 14.6--- 8615.0--0---01017.2 992.4 0.1---------
2019-07-20 02:00:00 16.2 14.0 14.7--- 8716.0--1wx--11017.1 992.3 0.1---------
2019-07-20 01:00:00 16.3 14.1 14.8--- 8714.0--0---01016.9 992.1 0.2---wx-----
2019-07-20 00:00:00 16.0 13.8 14.5--- 8713.0--0---01017.1 992.3 0.7- 0.06------
2019-07-19 23:00:00 16.0 13.7 14.4--- 8612.0--0----1017.0 992.2 0.4---------
2019-07-19 22:00:00 15.9 13.6 14.3--- 8613.0--0---01016.7 991.9 0.5---------
2019-07-19 21:00:00 16.8 13.1 14.3--- 7913.0--1wx--11016.3 991.6 0.3---------
2019-07-19 20:00:00 17.5 13.2 14.6--- 7617.0--0---01016.5 991.8 0.9---------
2019-07-19 19:00:00 19.4 13.3 15.5--- 6820.0--0---01015.9 991.4 0.8---------
2019-07-19 18:00:00 21.8 13.2 16.4 29.0 19.8- 5820.0--1wx--11015.6 991.3 1.5- 0.012------
2019-07-19 17:00:00 23.6 12.3 16.7--- 4920.0--1wx--11015.0 990.9 1.2---------
2019-07-19 16:00:00 25.2 9.5 16.0--- 3719.0--2wx--21014.6 990.6 0.7---------
2019-07-19 15:00:00 26.8 8.7 16.3--- 3223.0--2wx--21013.6 989.8 -0.3---------
2019-07-19 14:00:00 27.9 7.7 16.4--- 2823.0--1wx--11013.5 989.7 -0.8---------
2019-07-19 13:00:00 28.4 8.6 16.9--- 2922.0--2wx--21013.6 989.9 -0.7---------
2019-07-19 12:00:00 27.8 8.1 16.5--- 2921.0--2wx--21013.9 990.1 -0.7- 0.06------
2019-07-19 11:00:00 26.5 8.0 15.9--- 3125.0--1wx--11014.4 990.5 -0.4---------
2019-07-19 10:00:00 26.5 8.5 16.1--- 3224.0--2wx--21014.5 990.6 -0.4---------
2019-07-19 09:00:00 25.2 8.6 15.7--- 3522.0--1wx--11014.8 990.8 -0.2---------
2019-07-19 08:00:00 24.3 10.9 16.3--- 4321.0--1wx--11015.0 990.9 0.1---------
2019-07-19 07:00:00 22.2 11.6 15.7--- 5122.0--1wx--11015.3 991.0 0.3---------
2019-07-19 06:00:00 19.9 11.9 14.9 21.3 9.9 10 6023.0--1wx--11015.4 991.0 0.4- 0.012----- 12.0
2019-07-19 05:00:00 16.0 12.2 13.5--- 7813.0--0---01015.6 990.8 0.3---------
2019-07-19 04:00:00 11.0 10.2 10.4--- 9516.0--0---01015.9 990.7 0.3---------
2019-07-19 03:00:00 10.0 8.9 9.2--- 9312.0--0---01015.9 990.6 0.3---------
2019-07-19 02:00:00 10.4 9.0 9.4--- 9114.0--0---01015.8 990.5 0.2---------
2019-07-19 01:00:00 10.8 9.1 9.6--- 8919.0--0---01015.6 990.4 0.3---------
2019-07-19 00:00:00 11.8 9.2 10.1--- 8423.0--0---01015.4 990.3 0.3- 0.06------
1.0 ms

 

Print Friendly, PDF & Email